sensor_id;sensor_type;location;lat;lon;timestamp;pressure;altitude;pressure_sealevel;temperature;humidity
15670;BME280;18524;45.190;5.732;2023-06-14T00:03:11;98481.78;;;21.14;100.00
15670;BME280;18524;45.190;5.732;2023-06-14T00:08:02;98481.38;;;21.10;100.00
15670;BME280;18524;45.190;5.732;2023-06-14T00:12:53;98476.69;;;20.99;100.00
15670;BME280;18524;45.190;5.732;2023-06-14T00:17:44;98480.78;;;21.02;100.00
15670;BME280;18524;45.190;5.732;2023-06-14T00:22:37;98473.59;;;21.02;100.00
15670;BME280;18524;45.190;5.732;2023-06-14T00:27:28;98459.44;;;21.08;100.00
15670;BME280;18524;45.190;5.732;2023-06-14T00:32:19;98457.19;;;21.12;100.00
15670;BME280;18524;45.190;5.732;2023-06-14T00:37:09;98458.84;;;21.06;100.00
15670;BME280;18524;45.190;5.732;2023-06-14T00:41:59;98452.91;;;20.98;100.00
15670;BME280;18524;45.190;5.732;2023-06-14T00:46:50;98452.72;;;20.92;100.00
15670;BME280;18524;45.190;5.732;2023-06-14T00:51:44;98442.88;;;20.93;100.00
15670;BME280;18524;45.190;5.732;2023-06-14T00:56:36;98447.38;;;20.99;100.00
15670;BME280;18524;45.190;5.732;2023-06-14T01:01:26;98454.75;;;20.97;100.00
15670;BME280;18524;45.190;5.732;2023-06-14T01:06:23;98445.72;;;20.98;100.00
15670;BME280;18524;45.190;5.732;2023-06-14T01:11:28;98450.22;;;20.98;100.00
15670;BME280;18524;45.190;5.732;2023-06-14T01:16:22;98459.88;;;20.99;100.00
15670;BME280;18524;45.190;5.732;2023-06-14T01:21:25;98453.50;;;21.00;100.00
15670;BME280;18524;45.190;5.732;2023-06-14T01:26:16;98444.28;;;21.02;100.00
15670;BME280;18524;45.190;5.732;2023-06-14T01:31:07;98464.81;;;20.88;100.00
15670;BME280;18524;45.190;5.732;2023-06-14T01:35:58;98459.28;;;20.83;100.00
15670;BME280;18524;45.190;5.732;2023-06-14T01:40:50;98458.25;;;20.84;100.00
15670;BME280;18524;45.190;5.732;2023-06-14T01:45:42;98463.59;;;20.84;100.00
15670;BME280;18524;45.190;5.732;2023-06-14T01:50:34;98469.72;;;20.78;100.00
15670;BME280;18524;45.190;5.732;2023-06-14T01:55:24;98476.69;;;20.79;100.00
15670;BME280;18524;45.190;5.732;2023-06-14T02:00:15;98477.31;;;20.88;100.00
15670;BME280;18524;45.190;5.732;2023-06-14T02:05:06;98475.25;;;20.90;100.00
15670;BME280;18524;45.190;5.732;2023-06-14T02:09:57;98482.84;;;20.86;100.00
15670;BME280;18524;45.190;5.732;2023-06-14T02:14:48;98483.69;;;20.87;100.00
15670;BME280;18524;45.190;5.732;2023-06-14T02:19:38;98479.75;;;20.76;100.00
15670;BME280;18524;45.190;5.732;2023-06-14T02:24:29;98483.84;;;20.72;100.00
15670;BME280;18524;45.190;5.732;2023-06-14T02:29:20;98485.94;;;20.90;100.00
15670;BME280;18524;45.190;5.732;2023-06-14T02:34:11;98479.56;;;20.78;100.00
15670;BME280;18524;45.190;5.732;2023-06-14T02:39:01;98482.44;;;20.83;100.00
15670;BME280;18524;45.190;5.732;2023-06-14T02:43:52;98485.28;;;20.75;100.00
15670;BME280;18524;45.190;5.732;2023-06-14T02:48:42;98491.66;;;20.80;100.00
15670;BME280;18524;45.190;5.732;2023-06-14T02:53:33;98488.00;;;20.81;100.00
15670;BME280;18524;45.190;5.732;2023-06-14T02:58:23;98480.81;;;20.88;100.00
15670;BME280;18524;45.190;5.732;2023-06-14T03:03:15;98486.13;;;20.75;100.00
15670;BME280;18524;45.190;5.732;2023-06-14T03:08:06;98494.09;;;20.75;100.00
15670;BME280;18524;45.190;5.732;2023-06-14T03:12:57;98491.66;;;20.54;100.00
15670;BME280;18524;45.190;5.732;2023-06-14T03:17:47;98486.66;;;20.38;100.00
15670;BME280;18524;45.190;5.732;2023-06-14T03:22:39;98495.72;;;20.43;100.00
15670;BME280;18524;45.190;5.732;2023-06-14T03:27:29;98488.94;;;20.41;100.00
15670;BME280;18524;45.190;5.732;2023-06-14T03:32:20;98485.00;;;20.37;100.00
15670;BME280;18524;45.190;5.732;2023-06-14T03:37:10;98479.06;;;20.35;100.00
15670;BME280;18524;45.190;5.732;2023-06-14T03:42:01;98491.34;;;20.16;100.00
15670;BME280;18524;45.190;5.732;2023-06-14T03:46:51;98490.13;;;20.18;100.00
15670;BME280;18524;45.190;5.732;2023-06-14T03:51:41;98492.78;;;20.18;100.00
15670;BME280;18524;45.190;5.732;2023-06-14T03:56:32;98485.81;;;20.17;100.00
15670;BME280;18524;45.190;5.732;2023-06-14T04:01:22;98488.28;;;20.25;100.00
15670;BME280;18524;45.190;5.732;2023-06-14T04:06:17;98490.53;;;20.22;100.00
15670;BME280;18524;45.190;5.732;2023-06-14T04:11:09;98491.97;;;20.24;100.00
15670;BME280;18524;45.190;5.732;2023-06-14T04:16:00;98502.22;;;20.27;100.00
15670;BME280;18524;45.190;5.732;2023-06-14T04:20:50;98513.66;;;20.21;100.00
15670;BME280;18524;45.190;5.732;2023-06-14T04:25:41;98516.16;;;20.29;100.00
15670;BME280;18524;45.190;5.732;2023-06-14T04:30:35;98520.66;;;20.29;100.00
15670;BME280;18524;45.190;5.732;2023-06-14T04:35:26;98531.31;;;20.36;100.00
15670;BME280;18524;45.190;5.732;2023-06-14T04:40:17;98543.47;;;20.45;100.00
15670;BME280;18524;45.190;5.732;2023-06-14T04:45:08;98539.59;;;20.47;100.00
15670;BME280;18524;45.190;5.732;2023-06-14T04:49:59;98538.78;;;20.67;100.00
15670;BME280;18524;45.190;5.732;2023-06-14T04:54:50;98540.84;;;20.65;100.00
15670;BME280;18524;45.190;5.732;2023-06-14T04:59:41;98545.34;;;20.64;100.00
15670;BME280;18524;45.190;5.732;2023-06-14T05:04:31;98550.25;;;20.54;100.00
15670;BME280;18524;45.190;5.732;2023-06-14T05:09:22;98552.28;;;20.45;100.00
15670;BME280;18524;45.190;5.732;2023-06-14T05:14:13;98551.84;;;20.42;100.00
15670;BME280;18524;45.190;5.732;2023-06-14T05:19:04;98552.53;;;20.57;100.00
15670;BME280;18524;45.190;5.732;2023-06-14T05:23:54;98562.56;;;20.55;100.00
15670;BME280;18524;45.190;5.732;2023-06-14T05:28:45;98557.19;;;20.42;100.00
15670;BME280;18524;45.190;5.732;2023-06-14T05:33:36;98566.44;;;20.52;100.00
15670;BME280;18524;45.190;5.732;2023-06-14T05:38:26;98560.53;;;20.70;100.00
15670;BME280;18524;45.190;5.732;2023-06-14T05:43:17;98565.03;;;20.76;100.00
15670;BME280;18524;45.190;5.732;2023-06-14T05:48:07;98571.00;;;20.78;100.00
15670;BME280;18524;45.190;5.732;2023-06-14T05:52:58;98563.44;;;20.82;100.00
15670;BME280;18524;45.190;5.732;2023-06-14T05:57:48;98565.47;;;21.13;100.00
15670;BME280;18524;45.190;5.732;2023-06-14T06:02:38;98566.53;;;21.45;100.00
15670;BME280;18524;45.190;5.732;2023-06-14T06:07:29;98562.63;;;21.41;100.00
15670;BME280;18524;45.190;5.732;2023-06-14T06:12:20;98563.84;;;21.51;100.00
15670;BME280;18524;45.190;5.732;2023-06-14T06:17:10;98568.78;;;21.48;100.00
15670;BME280;18524;45.190;5.732;2023-06-14T06:22:01;98562.00;;;21.52;100.00
15670;BME280;18524;45.190;5.732;2023-06-14T06:26:52;98560.38;;;21.44;100.00
15670;BME280;18524;45.190;5.732;2023-06-14T06:31:42;98558.31;;;21.46;100.00
15670;BME280;18524;45.190;5.732;2023-06-14T06:36:32;98551.94;;;21.47;100.00
15670;BME280;18524;45.190;5.732;2023-06-14T06:41:23;98540.88;;;21.44;100.00
15670;BME280;18524;45.190;5.732;2023-06-14T06:46:13;98567.34;;;21.19;100.00
15670;BME280;18524;45.190;5.732;2023-06-14T06:51:04;98571.44;;;21.02;100.00
15670;BME280;18524;45.190;5.732;2023-06-14T06:55:55;98572.09;;;21.24;100.00
15670;BME280;18524;45.190;5.732;2023-06-14T07:00:46;98577.41;;;21.37;100.00
15670;BME280;18524;45.190;5.732;2023-06-14T07:05:36;98572.88;;;21.50;100.00
15670;BME280;18524;45.190;5.732;2023-06-14T07:10:26;98580.03;;;21.76;100.00
15670;BME280;18524;45.190;5.732;2023-06-14T07:15:17;98579.63;;;21.73;100.00
15670;BME280;18524;45.190;5.732;2023-06-14T07:20:08;98587.63;;;21.73;100.00
15670;BME280;18524;45.190;5.732;2023-06-14T07:25:01;98597.47;;;21.79;100.00
15670;BME280;18524;45.190;5.732;2023-06-14T07:29:53;98593.75;;;21.87;100.00
15670;BME280;18524;45.190;5.732;2023-06-14T07:34:43;98590.38;;;22.24;100.00
15670;BME280;18524;45.190;5.732;2023-06-14T07:39:33;98590.75;;;22.28;100.00
15670;BME280;18524;45.190;5.732;2023-06-14T07:44:24;98584.38;;;22.29;100.00
15670;BME280;18524;45.190;5.732;2023-06-14T07:49:14;98591.72;;;22.46;100.00
15670;BME280;18524;45.190;5.732;2023-06-14T07:54:05;98587.69;;;22.69;100.00
15670;BME280;18524;45.190;5.732;2023-06-14T07:58:57;98592.56;;;22.78;100.00
15670;BME280;18524;45.190;5.732;2023-06-14T08:03:47;98588.53;;;22.69;100.00
15670;BME280;18524;45.190;5.732;2023-06-14T08:08:38;98591.00;;;23.52;100.00
15670;BME280;18524;45.190;5.732;2023-06-14T08:13:28;98584.97;;;24.18;100.00
15670;BME280;18524;45.190;5.732;2023-06-14T08:18:18;98582.66;;;24.04;100.00
15670;BME280;18524;45.190;5.732;2023-06-14T08:23:09;98587.66;;;24.37;100.00
15670;BME280;18524;45.190;5.732;2023-06-14T08:27:59;98573.66;;;24.65;100.00
15670;BME280;18524;45.190;5.732;2023-06-14T08:32:50;98581.28;;;25.09;100.00
15670;BME280;18524;45.190;5.732;2023-06-14T08:37:41;98575.81;;;25.98;100.00
15670;BME280;18524;45.190;5.732;2023-06-14T08:42:33;98575.50;;;26.91;92.37
15670;BME280;18524;45.190;5.732;2023-06-14T08:47:26;98580.28;;;27.18;82.53
15670;BME280;18524;45.190;5.732;2023-06-14T08:52:20;98583.47;;;27.15;84.34
15670;BME280;18524;45.190;5.732;2023-06-14T08:57:11;98576.13;;;27.82;83.26
15670;BME280;18524;45.190;5.732;2023-06-14T09:02:07;98570.38;;;27.57;82.22
15670;BME280;18524;45.190;5.732;2023-06-14T09:06:57;98571.03;;;28.02;82.43
15670;BME280;18524;45.190;5.732;2023-06-14T09:11:51;98567.09;;;28.59;80.96
15670;BME280;18524;45.190;5.732;2023-06-14T09:16:42;98567.47;;;28.94;75.83
15670;BME280;18524;45.190;5.732;2023-06-14T09:21:35;98573.69;;;29.27;71.69
15670;BME280;18524;45.190;5.732;2023-06-14T09:26:28;98572.38;;;29.30;68.55
15670;BME280;18524;45.190;5.732;2023-06-14T09:31:20;98567.25;;;29.70;68.37
15670;BME280;18524;45.190;5.732;2023-06-14T09:36:12;98573.72;;;29.64;66.93
15670;BME280;18524;45.190;5.732;2023-06-14T09:41:03;98569.91;;;30.07;66.11
15670;BME280;18524;45.190;5.732;2023-06-14T09:45:54;98559.19;;;30.38;66.63
15670;BME280;18524;45.190;5.732;2023-06-14T09:50:45;98559.44;;;30.21;65.35
15670;BME280;18524;45.190;5.732;2023-06-14T09:55:37;98556.88;;;30.67;65.11
15670;BME280;18524;45.190;5.732;2023-06-14T10:00:31;98558.00;;;31.17;63.87
15670;BME280;18524;45.190;5.732;2023-06-14T10:05:24;98560.94;;;31.56;60.91
15670;BME280;18524;45.190;5.732;2023-06-14T10:10:17;98559.88;;;30.86;62.66
15670;BME280;18524;45.190;5.732;2023-06-14T10:15:17;98556.63;;;30.94;64.39
15670;BME280;18524;45.190;5.732;2023-06-14T10:20:30;98552.84;;;31.35;60.42
15670;BME280;18524;45.190;5.732;2023-06-14T10:25:30;98536.19;;;31.88;61.23
15670;BME280;18524;45.190;5.732;2023-06-14T10:30:25;98536.56;;;32.30;63.19
15670;BME280;18524;45.190;5.732;2023-06-14T10:35:16;98525.03;;;32.54;57.65
15670;BME280;18524;45.190;5.732;2023-06-14T10:40:07;98527.88;;;32.83;55.99
15670;BME280;18524;45.190;5.732;2023-06-14T10:44:59;98536.22;;;32.91;52.91
15670;BME280;18524;45.190;5.732;2023-06-14T10:50:04;98532.78;;;32.37;55.12
15670;BME280;18524;45.190;5.732;2023-06-14T10:55:11;98524.38;;;32.28;54.20
15670;BME280;18524;45.190;5.732;2023-06-14T11:00:06;98528.44;;;32.30;53.32
15670;BME280;18524;45.190;5.732;2023-06-14T11:05:08;98521.25;;;31.95;54.03
15670;BME280;18524;45.190;5.732;2023-06-14T11:10:26;98516.66;;;32.50;55.21
15670;BME280;18524;45.190;5.732;2023-06-14T11:15:30;98521.09;;;32.75;53.57
15670;BME280;18524;45.190;5.732;2023-06-14T11:20:25;98518.56;;;32.89;51.83
15670;BME280;18524;45.190;5.732;2023-06-14T11:25:16;98513.13;;;32.50;45.40
15670;BME280;18524;45.190;5.732;2023-06-14T11:30:07;98512.06;;;32.46;47.46
15670;BME280;18524;45.190;5.732;2023-06-14T11:34:59;98506.28;;;32.57;45.47
15670;BME280;18524;45.190;5.732;2023-06-14T11:39:50;98502.19;;;33.57;46.08
15670;BME280;18524;45.190;5.732;2023-06-14T11:44:40;98494.97;;;33.47;43.98
15670;BME280;18524;45.190;5.732;2023-06-14T11:49:35;98486.63;;;33.63;42.33
15670;BME280;18524;45.190;5.732;2023-06-14T11:54:26;98479.72;;;33.70;43.65
15670;BME280;18524;45.190;5.732;2023-06-14T11:59:17;98479.81;;;33.07;41.58
15670;BME280;18524;45.190;5.732;2023-06-14T12:04:07;98482.78;;;32.77;45.35
15670;BME280;18524;45.190;5.732;2023-06-14T12:08:58;98485.75;;;33.14;45.28
15670;BME280;18524;45.190;5.732;2023-06-14T12:13:49;98482.88;;;33.01;46.27
15670;BME280;18524;45.190;5.732;2023-06-14T12:18:40;98479.88;;;33.31;44.79
15670;BME280;18524;45.190;5.732;2023-06-14T12:23:47;98478.66;;;34.52;42.44
15670;BME280;18524;45.190;5.732;2023-06-14T12:28:40;98465.03;;;34.52;40.13
15670;BME280;18524;45.190;5.732;2023-06-14T12:33:31;98484.72;;;33.87;41.51
15670;BME280;18524;45.190;5.732;2023-06-14T12:38:22;98475.44;;;33.64;40.87
15670;BME280;18524;45.190;5.732;2023-06-14T12:43:12;98490.47;;;33.85;42.39
15670;BME280;18524;45.190;5.732;2023-06-14T12:48:03;98486.19;;;34.60;43.51
15670;BME280;18524;45.190;5.732;2023-06-14T12:52:54;98468.34;;;34.67;41.63
15670;BME280;18524;45.190;5.732;2023-06-14T12:57:44;98475.88;;;34.89;41.48
15670;BME280;18524;45.190;5.732;2023-06-14T13:02:34;98468.34;;;35.60;41.57
15670;BME280;18524;45.190;5.732;2023-06-14T13:07:26;98474.34;;;35.29;40.06
15670;BME280;18524;45.190;5.732;2023-06-14T13:12:17;98464.91;;;34.62;36.91
15670;BME280;18524;45.190;5.732;2023-06-14T13:17:10;98465.59;;;34.86;40.67
15670;BME280;18524;45.190;5.732;2023-06-14T13:22:01;98460.63;;;34.37;41.69
15670;BME280;18524;45.190;5.732;2023-06-14T13:26:52;98459.59;;;35.17;41.49
15670;BME280;18524;45.190;5.732;2023-06-14T13:31:42;98457.94;;;35.62;38.38
15670;BME280;18524;45.190;5.732;2023-06-14T13:36:34;98448.69;;;35.03;30.70
15670;BME280;18524;45.190;5.732;2023-06-14T13:41:26;98453.69;;;34.07;33.13
15670;BME280;18524;45.190;5.732;2023-06-14T13:46:21;98462.38;;;33.66;32.99
15670;BME280;18524;45.190;5.732;2023-06-14T13:51:11;98461.94;;;33.83;36.30
15670;BME280;18524;45.190;5.732;2023-06-14T13:56:02;98435.81;;;34.01;31.46
15670;BME280;18524;45.190;5.732;2023-06-14T14:00:53;98442.06;;;33.82;34.03
15670;BME280;18524;45.190;5.732;2023-06-14T14:05:44;98439.88;;;33.84;32.71
15670;BME280;18524;45.190;5.732;2023-06-14T14:10:35;98438.69;;;33.91;28.35
15670;BME280;18524;45.190;5.732;2023-06-14T14:15:25;98430.38;;;33.34;33.93
15670;BME280;18524;45.190;5.732;2023-06-14T14:20:16;98443.38;;;33.37;36.66
15670;BME280;18524;45.190;5.732;2023-06-14T14:25:07;98435.97;;;32.90;30.69
15670;BME280;18524;45.190;5.732;2023-06-14T14:29:57;98441.59;;;32.64;33.36
15670;BME280;18524;45.190;5.732;2023-06-14T14:34:48;98432.63;;;32.30;37.40
15670;BME280;18524;45.190;5.732;2023-06-14T14:39:38;98428.75;;;31.97;37.77
15670;BME280;18524;45.190;5.732;2023-06-14T14:44:28;98424.16;;;31.97;40.20
15670;BME280;18524;45.190;5.732;2023-06-14T14:49:19;98429.56;;;31.97;39.31
15670;BME280;18524;45.190;5.732;2023-06-14T14:54:10;98429.78;;;32.06;39.02
15670;BME280;18524;45.190;5.732;2023-06-14T14:59:01;98438.84;;;31.86;38.98
15670;BME280;18524;45.190;5.732;2023-06-14T15:03:53;98443.25;;;31.67;39.34
15670;BME280;18524;45.190;5.732;2023-06-14T15:08:43;98443.25;;;31.72;38.93
15670;BME280;18524;45.190;5.732;2023-06-14T15:13:34;98445.47;;;31.50;38.44
15670;BME280;18524;45.190;5.732;2023-06-14T15:18:24;98447.19;;;31.20;38.28
15670;BME280;18524;45.190;5.732;2023-06-14T15:23:15;98453.13;;;31.07;38.40
15670;BME280;18524;45.190;5.732;2023-06-14T15:28:09;98445.03;;;31.02;40.97
15670;BME280;18524;45.190;5.732;2023-06-14T15:33:00;98468.06;;;30.89;37.56
15670;BME280;18524;45.190;5.732;2023-06-14T15:37:50;98459.09;;;31.09;38.07
15670;BME280;18524;45.190;5.732;2023-06-14T15:42:40;98440.94;;;31.15;36.69
15670;BME280;18524;45.190;5.732;2023-06-14T15:47:31;98463.44;;;31.10;37.24
15670;BME280;18524;45.190;5.732;2023-06-14T15:52:21;98479.41;;;31.06;36.23
15670;BME280;18524;45.190;5.732;2023-06-14T15:57:12;98471.03;;;30.98;38.17
15670;BME280;18524;45.190;5.732;2023-06-14T16:02:02;98469.13;;;30.83;36.91
15670;BME280;18524;45.190;5.732;2023-06-14T16:06:53;98474.28;;;30.69;35.97
15670;BME280;18524;45.190;5.732;2023-06-14T16:11:43;98467.19;;;30.43;37.30
15670;BME280;18524;45.190;5.732;2023-06-14T16:16:33;98469.34;;;30.36;35.45
15670;BME280;18524;45.190;5.732;2023-06-14T16:21:24;98473.94;;;30.25;36.99
15670;BME280;18524;45.190;5.732;2023-06-14T16:26:14;98469.06;;;30.12;36.10
15670;BME280;18524;45.190;5.732;2023-06-14T16:31:05;98464.94;;;30.04;35.16
15670;BME280;18524;45.190;5.732;2023-06-14T16:35:55;98464.06;;;29.78;37.17
15670;BME280;18524;45.190;5.732;2023-06-14T16:40:46;98478.88;;;29.71;33.98
15670;BME280;18524;45.190;5.732;2023-06-14T16:45:36;98467.72;;;29.57;34.85
15670;BME280;18524;45.190;5.732;2023-06-14T16:50:26;98485.75;;;29.41;34.99
15670;BME280;18524;45.190;5.732;2023-06-14T16:55:17;98486.47;;;29.32;34.35
15670;BME280;18524;45.190;5.732;2023-06-14T17:00:08;98484.56;;;29.27;32.56
15670;BME280;18524;45.190;5.732;2023-06-14T17:04:58;98494.97;;;29.08;31.79
15670;BME280;18524;45.190;5.732;2023-06-14T17:09:48;98516.19;;;28.94;34.79
15670;BME280;18524;45.190;5.732;2023-06-14T17:14:39;98516.03;;;28.79;30.80
15670;BME280;18524;45.190;5.732;2023-06-14T17:19:30;98525.13;;;28.68;31.62
15670;BME280;18524;45.190;5.732;2023-06-14T17:24:21;98537.88;;;28.51;29.61
15670;BME280;18524;45.190;5.732;2023-06-14T17:29:11;98540.69;;;28.34;31.68
15670;BME280;18524;45.190;5.732;2023-06-14T17:34:02;98543.97;;;28.19;31.24
15670;BME280;18524;45.190;5.732;2023-06-14T17:38:52;98547.81;;;28.23;31.82
15670;BME280;18524;45.190;5.732;2023-06-14T17:43:43;98549.25;;;28.09;31.56
15670;BME280;18524;45.190;5.732;2023-06-14T17:48:33;98556.38;;;27.93;32.06
15670;BME280;18524;45.190;5.732;2023-06-14T17:53:24;98569.13;;;27.81;31.40
15670;BME280;18524;45.190;5.732;2023-06-14T17:58:14;98578.44;;;27.74;31.59
15670;BME280;18524;45.190;5.732;2023-06-14T18:03:05;98586.97;;;27.65;31.32
15670;BME280;18524;45.190;5.732;2023-06-14T18:07:55;98584.25;;;27.49;32.14
15670;BME280;18524;45.190;5.732;2023-06-14T18:12:45;98587.69;;;27.44;31.54
15670;BME280;18524;45.190;5.732;2023-06-14T18:17:36;98593.75;;;27.34;32.64
15670;BME280;18524;45.190;5.732;2023-06-14T18:22:26;98592.34;;;27.32;30.19
15670;BME280;18524;45.190;5.732;2023-06-14T18:27:16;98599.13;;;27.18;34.00
15670;BME280;18524;45.190;5.732;2023-06-14T18:32:07;98605.00;;;27.15;32.23
15670;BME280;18524;45.190;5.732;2023-06-14T18:36:58;98605.19;;;26.96;33.00
15670;BME280;18524;45.190;5.732;2023-06-14T18:41:48;98614.63;;;26.82;34.21
15670;BME280;18524;45.190;5.732;2023-06-14T18:46:38;98609.03;;;26.72;34.57
15670;BME280;18524;45.190;5.732;2023-06-14T18:51:29;98612.69;;;26.66;35.07
15670;BME280;18524;45.190;5.732;2023-06-14T18:56:20;98620.69;;;26.61;35.25
15670;BME280;18524;45.190;5.732;2023-06-14T19:01:10;98620.00;;;26.54;34.26
15670;BME280;18524;45.190;5.732;2023-06-14T19:06:02;98637.59;;;26.44;34.16
15670;BME280;18524;45.190;5.732;2023-06-14T19:10:53;98642.97;;;26.44;33.25
15670;BME280;18524;45.190;5.732;2023-06-14T19:15:43;98634.19;;;26.37;35.19
15670;BME280;18524;45.190;5.732;2023-06-14T19:20:34;98652.06;;;26.32;34.13
15670;BME280;18524;45.190;5.732;2023-06-14T19:25:25;98655.94;;;26.24;33.49
15670;BME280;18524;45.190;5.732;2023-06-14T19:30:15;98661.78;;;26.21;33.54
15670;BME280;18524;45.190;5.732;2023-06-14T19:35:07;98668.34;;;26.13;33.88
15670;BME280;18524;45.190;5.732;2023-06-14T19:39:58;98681.22;;;26.11;35.55
15670;BME280;18524;45.190;5.732;2023-06-14T19:44:48;98687.03;;;25.97;35.00
15670;BME280;18524;45.190;5.732;2023-06-14T19:49:39;98699.09;;;25.94;34.30
15670;BME280;18524;45.190;5.732;2023-06-14T19:54:29;98709.13;;;25.87;35.70
15670;BME280;18524;45.190;5.732;2023-06-14T19:59:20;98712.50;;;25.82;33.28
15670;BME280;18524;45.190;5.732;2023-06-14T20:04:10;98723.97;;;25.78;33.67
15670;BME280;18524;45.190;5.732;2023-06-14T20:09:00;98716.50;;;25.80;33.19
15670;BME280;18524;45.190;5.732;2023-06-14T20:13:51;98719.41;;;25.78;32.93
15670;BME280;18524;45.190;5.732;2023-06-14T20:18:41;98722.09;;;25.67;35.26
15670;BME280;18524;45.190;5.732;2023-06-14T20:23:31;98723.66;;;25.56;36.07
15670;BME280;18524;45.190;5.732;2023-06-14T20:28:22;98729.72;;;25.51;34.55
15670;BME280;18524;45.190;5.732;2023-06-14T20:33:12;98730.41;;;25.47;34.27
15670;BME280;18524;45.190;5.732;2023-06-14T20:38:02;98727.94;;;25.45;36.58
15670;BME280;18524;45.190;5.732;2023-06-14T20:42:53;98734.72;;;25.36;36.76
15670;BME280;18524;45.190;5.732;2023-06-14T20:47:46;98736.44;;;25.31;37.06
15670;BME280;18524;45.190;5.732;2023-06-14T20:52:38;98736.06;;;25.27;35.58
15670;BME280;18524;45.190;5.732;2023-06-14T20:57:28;98732.41;;;25.21;35.48
15670;BME280;18524;45.190;5.732;2023-06-14T21:02:19;98731.59;;;25.21;36.18
15670;BME280;18524;45.190;5.732;2023-06-14T21:07:09;98728.31;;;25.19;36.69
15670;BME280;18524;45.190;5.732;2023-06-14T21:12:00;98737.63;;;25.05;39.45
15670;BME280;18524;45.190;5.732;2023-06-14T21:16:50;98739.75;;;24.96;36.70
15670;BME280;18524;45.190;5.732;2023-06-14T21:21:40;98743.31;;;24.90;39.16
15670;BME280;18524;45.190;5.732;2023-06-14T21:26:31;98746.03;;;24.72;43.42
15670;BME280;18524;45.190;5.732;2023-06-14T21:31:21;98758.47;;;24.48;45.04
15670;BME280;18524;45.190;5.732;2023-06-14T21:36:12;98758.97;;;24.38;48.63
15670;BME280;18524;45.190;5.732;2023-06-14T21:41:02;98762.53;;;24.07;48.58
15670;BME280;18524;45.190;5.732;2023-06-14T21:45:52;98768.06;;;23.87;49.24
15670;BME280;18524;45.190;5.732;2023-06-14T21:50:43;98778.53;;;23.64;50.53
15670;BME280;18524;45.190;5.732;2023-06-14T21:55:33;98778.53;;;23.64;54.04
15670;BME280;18524;45.190;5.732;2023-06-14T22:00:23;98782.50;;;23.55;52.91
15670;BME280;18524;45.190;5.732;2023-06-14T22:05:14;98794.66;;;23.51;55.27
15670;BME280;18524;45.190;5.732;2023-06-14T22:10:05;98795.16;;;23.34;55.39
15670;BME280;18524;45.190;5.732;2023-06-14T22:14:56;98797.47;;;23.24;54.17
15670;BME280;18524;45.190;5.732;2023-06-14T22:19:47;98796.91;;;23.16;55.29
15670;BME280;18524;45.190;5.732;2023-06-14T22:24:40;98814.63;;;23.10;57.29
15670;BME280;18524;45.190;5.732;2023-06-14T22:29:31;98813.00;;;23.09;57.07
15670;BME280;18524;45.190;5.732;2023-06-14T22:34:23;98814.66;;;22.97;56.78
15670;BME280;18524;45.190;5.732;2023-06-14T22:39:13;98828.28;;;22.89;58.12
15670;BME280;18524;45.190;5.732;2023-06-14T22:44:04;98829.50;;;22.80;55.96
15670;BME280;18524;45.190;5.732;2023-06-14T22:48:55;98826.25;;;22.71;55.35
15670;BME280;18524;45.190;5.732;2023-06-14T22:53:47;98823.56;;;22.64;54.66
15670;BME280;18524;45.190;5.732;2023-06-14T22:58:38;98831.81;;;22.50;53.27
15670;BME280;18524;45.190;5.732;2023-06-14T23:03:30;98838.63;;;22.45;55.11
15670;BME280;18524;45.190;5.732;2023-06-14T23:08:20;98841.09;;;22.47;55.58
15670;BME280;18524;45.190;5.732;2023-06-14T23:13:10;98842.53;;;22.36;55.12
15670;BME280;18524;45.190;5.732;2023-06-14T23:18:01;98837.16;;;22.30;54.62
15670;BME280;18524;45.190;5.732;2023-06-14T23:22:51;98839.25;;;22.14;57.72
15670;BME280;18524;45.190;5.732;2023-06-14T23:27:43;98836.34;;;22.16;58.23
15670;BME280;18524;45.190;5.732;2023-06-14T23:32:33;98844.38;;;22.09;58.77
15670;BME280;18524;45.190;5.732;2023-06-14T23:37:24;98841.88;;;22.01;61.25
15670;BME280;18524;45.190;5.732;2023-06-14T23:42:14;98849.06;;;22.01;64.38
15670;BME280;18524;45.190;5.732;2023-06-14T23:47:05;98850.06;;;21.80;62.43
15670;BME280;18524;45.190;5.732;2023-06-14T23:51:56;98850.88;;;21.74;68.08
15670;BME280;18524;45.190;5.732;2023-06-14T23:56:47;98854.97;;;21.70;68.12
